Terminal Aerodrome Forecast
Issued by NWS

Home | Current Version | Previous Version | Text Only | Print | Product List | Glossary On
Versions: 1 2 3 4 5 6 7 8 9 10 11 12 13 14
846
FTUS43 KMPX 231120
TAFRNH
TAF
KRNH 231120Z 2312/2412 29005KT P6SM SKC
     FM231800 33008KT P6SM SCT080
     FM240000 VRB03KT P6SM BKN080
     FM241000 VRB04KT P6SM VCSH OVC080=

USA.gov is the U.S. government's official web portal to all federal, state and local government web resources and services.